Time;durP1;ratioP1;P1;durP2;ratioP2;P2;SDS_P1;SDS_P2;PMS_P1;PMS_P2;Temp;Humidity;BMP_temperature;BMP_pressure;BME280_temperature;BME280_humidity;BME280_pressure;Samples;Min_cycle;Max_cycle;Signal;HPM_P1;HPM_P2
2023/09/16 00:00:17;;;;;;;10.93;8.57;;;;;;;;;;5051859;28;20066;-63
2023/09/16 00:02:43;;;;;;;11.70;8.57;;;;;;;;;;5052023;28;20115;-63
2023/09/16 00:05:09;;;;;;;14.48;8.70;;;;;;;;;;5050960;28;20492;-63
2023/09/16 00:07:35;;;;;;;14.23;9.05;;;;;;;;;;5053578;28;20125;-63
2023/09/16 00:10:01;;;;;;;9.52;7.75;;;;;;;;;;5050540;28;20032;-63
2023/09/16 00:12:27;;;;;;;11.43;8.18;;;;;;;;;;5052163;28;20779;-63
2023/09/16 00:14:53;;;;;;;12.55;8.68;;;;;;;;;;5053867;28;20028;-63
2023/09/16 00:17:21;;;;;;;11.73;8.27;;;;;;;;;;5052873;28;21785;-63
2023/09/16 00:19:48;;;;;;;10.30;8.20;;;;;;;;;;5052055;28;20032;-63
2023/09/16 00:22:14;;;;;;;10.88;8.57;;;;;;;;;;5054298;28;20047;-63
2023/09/16 00:24:40;;;;;;;12.43;9.27;;;;;;;;;;5053923;28;20074;-63
2023/09/16 00:27:09;;;;;;;11.45;9.10;;;;;;;;;;5053027;28;20032;-63
2023/09/16 00:29:35;;;;;;;13.57;8.73;;;;;;;;;;5052708;28;20500;-63
2023/09/16 00:32:04;;;;;;;11.45;9.30;;;;;;;;;;5052381;28;20044;-62
2023/09/16 00:34:31;;;;;;;10.82;9.10;;;;;;;;;;5053676;28;20039;-63
2023/09/16 00:36:57;;;;;;;10.55;8.90;;;;;;;;;;5053581;28;20111;-62
2023/09/16 00:39:24;;;;;;;10.13;8.57;;;;;;;;;;5051764;28;20028;-62
2023/09/16 00:41:51;;;;;;;11.02;9.15;;;;;;;;;;5053099;28;20060;-63
2023/09/16 00:44:17;;;;;;;9.68;8.32;;;;;;;;;;5053107;28;20126;-63
2023/09/16 00:46:44;;;;;;;11.90;9.02;;;;;;;;;;5050145;28;20138;-63
2023/09/16 00:49:10;;;;;;;11.73;9.52;;;;;;;;;;5052526;28;20153;-63
2023/09/16 00:51:40;;;;;;;12.38;9.85;;;;;;;;;;5052405;28;20051;-63
2023/09/16 00:54:06;;;;;;;8.93;6.90;;;;;;;;;;5053659;28;20044;-62
2023/09/16 00:56:33;;;;;;;11.77;9.80;;;;;;;;;;5053133;28;20221;-62
2023/09/16 00:58:59;;;;;;;12.30;8.95;;;;;;;;;;5048781;28;20114;-63
2023/09/16 01:01:26;;;;;;;11.00;8.90;;;;;;;;;;5052627;28;21075;-62
2023/09/16 01:03:52;;;;;;;9.10;7.13;;;;;;;;;;5053413;28;20213;-62
2023/09/16 01:06:19;;;;;;;6.35;5.05;;;;;;;;;;5053585;28;20040;-62
2023/09/16 01:08:46;;;;;;;5.57;3.35;;;;;;;;;;5053531;28;20036;-62
2023/09/16 01:11:12;;;;;;;9.05;5.43;;;;;;;;;;5052912;28;20121;-62
2023/09/16 01:13:39;;;;;;;9.73;8.10;;;;;;;;;;5053989;28;20032;-62
2023/09/16 01:16:16;;;;;;;11.25;9.20;;;;;;;;;;5052552;28;20032;-63
2023/09/16 01:18:46;;;;;;;12.18;8.98;;;;;;;;;;5051995;28;20071;-63
2023/09/16 01:21:13;;;;;;;13.00;9.68;;;;;;;;;;5052498;28;20078;-62
2023/09/16 01:23:39;;;;;;;12.43;9.32;;;;;;;;;;5056745;28;20085;-63
2023/09/16 01:26:06;;;;;;;12.55;9.48;;;;;;;;;;5052552;28;20039;-63
2023/09/16 01:28:32;;;;;;;11.35;10.15;;;;;;;;;;5056968;28;20032;-62
2023/09/16 01:30:58;;;;;;;13.63;10.00;;;;;;;;;;5055042;28;20121;-63
2023/09/16 01:33:43;;;;;;;11.55;9.85;;;;;;;;;;5056618;28;20508;-62
2023/09/16 01:36:14;;;;;;;11.52;9.88;;;;;;;;;;5056348;28;21343;-63
2023/09/16 01:38:41;;;;;;;12.40;10.63;;;;;;;;;;5054487;28;20020;-62
2023/09/16 01:41:09;;;;;;;13.70;9.40;;;;;;;;;;5054146;28;20074;-62
2023/09/16 01:43:36;;;;;;;12.10;9.38;;;;;;;;;;5055976;28;21802;-62
2023/09/16 01:46:02;;;;;;;12.63;9.45;;;;;;;;;;5054222;28;20521;-63
2023/09/16 01:48:28;;;;;;;12.63;10.23;;;;;;;;;;5055581;28;20036;-63
2023/09/16 01:50:57;;;;;;;7.90;5.93;;;;;;;;;;5053730;28;20111;-62
2023/09/16 01:53:23;;;;;;;8.73;7.20;;;;;;;;;;5056159;28;20036;-62
2023/09/16 01:55:49;;;;;;;8.85;6.65;;;;;;;;;;5056138;28;20098;-62
2023/09/16 01:58:15;;;;;;;11.18;8.57;;;;;;;;;;5057514;28;20679;-62
2023/09/16 02:00:42;;;;;;;12.00;9.02;;;;;;;;;;5055244;28;20036;-62
2023/09/16 02:03:09;;;;;;;10.00;8.95;;;;;;;;;;5057912;28;20028;-63
2023/09/16 02:05:35;;;;;;;10.40;8.65;;;;;;;;;;5055283;28;20040;-62
2023/09/16 02:08:01;;;;;;;11.55;8.18;;;;;;;;;;5055134;28;20032;-63
2023/09/16 02:10:28;;;;;;;12.95;8.40;;;;;;;;;;5054821;28;20031;-63
2023/09/16 02:12:54;;;;;;;11.55;7.60;;;;;;;;;;5055105;28;20415;-62
2023/09/16 02:15:20;;;;;;;9.23;7.22;;;;;;;;;;5056150;28;20161;-62
2023/09/16 02:17:46;;;;;;;10.05;7.88;;;;;;;;;;5056214;28;20056;-63
2023/09/16 02:20:12;;;;;;;10.00;8.13;;;;;;;;;;5053975;28;20075;-62
2023/09/16 02:22:39;;;;;;;5.32;2.80;;;;;;;;;;5054712;28;20149;-62
2023/09/16 02:25:05;;;;;;;6.35;2.42;;;;;;;;;;5056019;28;20111;-62
2023/09/16 02:27:32;;;;;;;5.60;2.53;;;;;;;;;;5055306;28;20044;-62
2023/09/16 02:29:58;;;;;;;4.82;2.35;;;;;;;;;;5055407;28;20089;-63
2023/09/16 02:32:24;;;;;;;6.28;4.63;;;;;;;;;;5052254;28;20920;-62
2023/09/16 02:34:50;;;;;;;9.40;6.72;;;;;;;;;;5054041;28;20471;-63
2023/09/16 02:37:16;;;;;;;9.77;7.57;;;;;;;;;;5055249;28;20032;-62
2023/09/16 02:39:42;;;;;;;8.88;6.22;;;;;;;;;;5055349;28;20036;-62
2023/09/16 02:42:08;;;;;;;8.23;6.47;;;;;;;;;;5056202;28;20115;-63
2023/09/16 02:44:34;;;;;;;20.90;3.35;;;;;;;;;;5055792;28;20027;-62
2023/09/16 02:47:00;;;;;;;3.05;1.45;;;;;;;;;;5050594;28;20067;-63
2023/09/16 02:49:29;;;;;;;5.47;2.63;;;;;;;;;;5055719;28;20654;-62
2023/09/16 02:51:55;;;;;;;7.03;4.32;;;;;;;;;;5055300;28;20144;-62
2023/09/16 02:54:21;;;;;;;7.32;3.33;;;;;;;;;;5055755;28;20044;-63
2023/09/16 02:56:47;;;;;;;10.77;6.43;;;;;;;;;;5055075;28;20040;-62
2023/09/16 02:59:13;;;;;;;9.70;6.22;;;;;;;;;;5055795;28;20110;-62
2023/09/16 03:01:39;;;;;;;8.35;5.35;;;;;;;;;;5052579;28;20120;-62
2023/09/16 03:04:05;;;;;;;9.57;7.45;;;;;;;;;;5055328;28;20546;-62
2023/09/16 03:06:31;;;;;;;11.27;7.93;;;;;;;;;;5054691;28;21826;-62
2023/09/16 03:08:57;;;;;;;10.40;8.43;;;;;;;;;;5053574;28;20550;-62
2023/09/16 03:11:23;;;;;;;10.02;7.90;;;;;;;;;;5054845;28;20028;-62
2023/09/16 03:13:49;;;;;;;10.60;8.63;;;;;;;;;;5055107;28;20035;-63
2023/09/16 03:16:15;;;;;;;9.70;7.85;;;;;;;;;;5055915;28;20067;-62
2023/09/16 03:18:48;;;;;;;13.65;9.85;;;;;;;;;;5055379;28;20115;-63
2023/09/16 03:21:15;;;;;;;13.93;10.77;;;;;;;;;;5054477;28;20023;-62
2023/09/16 03:23:41;;;;;;;15.40;12.25;;;;;;;;;;5054872;28;20103;-62
2023/09/16 03:26:09;;;;;;;18.02;14.35;;;;;;;;;;5055722;28;20035;-62
2023/09/16 03:28:35;;;;;;;17.70;13.40;;;;;;;;;;5054850;28;20039;-62
2023/09/16 03:31:01;;;;;;;23.63;14.15;;;;;;;;;;5054623;28;20032;-63
2023/09/16 03:33:27;;;;;;;18.45;13.60;;;;;;;;;;5049637;28;20395;-62
2023/09/16 03:35:53;;;;;;;20.40;13.32;;;;;;;;;;5052244;28;20114;-63
2023/09/16 03:38:19;;;;;;;17.35;13.07;;;;;;;;;;5051831;28;20134;-63
2023/09/16 03:40:45;;;;;;;14.98;12.52;;;;;;;;;;5051452;28;20852;-63
2023/09/16 03:43:12;;;;;;;16.52;13.07;;;;;;;;;;5052839;28;20089;-63
2023/09/16 03:45:38;;;;;;;15.23;11.63;;;;;;;;;;5053539;28;20475;-63
2023/09/16 03:48:04;;;;;;;10.73;9.18;;;;;;;;;;5052846;28;20506;-62
2023/09/16 03:50:30;;;;;;;9.38;5.35;;;;;;;;;;5048283;28;20039;-62
2023/09/16 03:52:56;;;;;;;9.60;6.80;;;;;;;;;;5053616;28;20052;-62
2023/09/16 03:55:22;;;;;;;7.72;5.38;;;;;;;;;;5053437;28;20463;-63
2023/09/16 03:57:48;;;;;;;8.98;6.63;;;;;;;;;;5053114;28;20028;-62
2023/09/16 04:00:15;;;;;;;8.15;6.43;;;;;;;;;;5052569;28;20033;-68
2023/09/16 04:02:41;;;;;;;9.38;7.35;;;;;;;;;;5052425;28;20085;-68
2023/09/16 04:05:07;;;;;;;10.35;7.65;;;;;;;;;;5053433;28;20047;-68
2023/09/16 04:07:34;;;;;;;9.45;7.05;;;;;;;;;;5053635;28;20039;-68
2023/09/16 04:10:00;;;;;;;8.50;7.10;;;;;;;;;;5048553;28;21669;-68
2023/09/16 04:12:27;;;;;;;9.85;7.60;;;;;;;;;;5052926;28;20043;-68
2023/09/16 04:14:53;;;;;;;12.68;8.55;;;;;;;;;;5053318;28;20028;-68
2023/09/16 04:17:20;;;;;;;12.85;8.65;;;;;;;;;;5054355;28;20065;-68
2023/09/16 04:19:46;;;;;;;12.60;8.18;;;;;;;;;;5053779;28;20115;-68
2023/09/16 04:22:12;;;;;;;9.90;8.20;;;;;;;;;;5051975;28;20065;-68
2023/09/16 04:24:39;;;;;;;9.80;7.50;;;;;;;;;;5054800;28;20132;-68
2023/09/16 04:27:05;;;;;;;11.82;8.82;;;;;;;;;;5053841;28;20922;-68
2023/09/16 04:29:31;;;;;;;12.90;9.18;;;;;;;;;;5052925;28;20113;-69
2023/09/16 04:31:57;;;;;;;11.65;9.52;;;;;;;;;;5051106;28;20051;-68
2023/09/16 04:34:23;;;;;;;13.05;9.32;;;;;;;;;;5052905;28;20032;-68
2023/09/16 04:36:49;;;;;;;11.52;9.05;;;;;;;;;;5053534;28;20037;-68
2023/09/16 04:39:17;;;;;;;9.98;8.45;;;;;;;;;;5052898;28;20040;-68
2023/09/16 04:41:43;;;;;;;12.68;8.93;;;;;;;;;;5052536;28;20035;-63
2023/09/16 04:44:10;;;;;;;10.63;7.95;;;;;;;;;;5053773;28;21728;-63
2023/09/16 04:46:36;;;;;;;8.90;6.40;;;;;;;;;;5036431;28;20040;-63
2023/09/16 04:49:02;;;;;;;4.82;2.25;;;;;;;;;;5052043;28;20028;-62
2023/09/16 04:51:28;;;;;;;4.13;1.60;;;;;;;;;;5052322;28;21215;-63
2023/09/16 04:53:56;;;;;;;6.53;1.98;;;;;;;;;;5033995;28;20117;-63
2023/09/16 04:56:23;;;;;;;3.60;1.60;;;;;;;;;;5051821;28;20131;-63
2023/09/16 04:58:49;;;;;;;4.05;1.65;;;;;;;;;;5056225;28;20024;-63
2023/09/16 05:01:15;;;;;;;8.40;1.95;;;;;;;;;;5057506;28;20624;-62
2023/09/16 05:03:41;;;;;;;47.63;3.63;;;;;;;;;;5056819;28;20438;-62
2023/09/16 05:06:08;;;;;;;20.83;2.38;;;;;;;;;;5057446;28;20568;-62
2023/09/16 05:08:34;;;;;;;4.43;1.67;;;;;;;;;;5056278;28;20044;-63
2023/09/16 05:11:00;;;;;;;6.38;1.92;;;;;;;;;;5055341;28;20155;-62
2023/09/16 05:13:26;;;;;;;3.60;1.48;;;;;;;;;;5056300;28;20113;-62
2023/09/16 05:15:52;;;;;;;3.90;2.33;;;;;;;;;;5056526;28;20518;-62
2023/09/16 05:18:18;;;;;;;5.13;3.13;;;;;;;;;;5052613;28;20032;-62
2023/09/16 05:20:44;;;;;;;7.53;3.60;;;;;;;;;;5056470;28;20035;-62
2023/09/16 05:23:13;;;;;;;8.48;5.93;;;;;;;;;;5056505;28;20032;-62
2023/09/16 05:25:48;;;;;;;10.45;7.80;;;;;;;;;;5057661;28;20036;-62
2023/09/16 05:28:15;;;;;;;12.93;8.80;;;;;;;;;;5056319;28;20056;-62
2023/09/16 05:30:44;;;;;;;9.57;6.82;;;;;;;;;;5056985;28;20459;-62
2023/09/16 05:33:13;;;;;;;8.52;5.75;;;;;;;;;;5055124;28;20105;-62
2023/09/16 05:35:40;;;;;;;10.55;6.05;;;;;;;;;;5055000;28;20033;-62
2023/09/16 05:38:06;;;;;;;8.55;5.53;;;;;;;;;;5056210;28;20036;-62
2023/09/16 05:40:33;;;;;;;9.50;8.07;;;;;;;;;;5056378;28;20039;-62
2023/09/16 05:42:59;;;;;;;12.07;8.25;;;;;;;;;;5054728;28;20124;-62
2023/09/16 05:45:25;;;;;;;18.45;13.10;;;;;;;;;;5056585;28;20020;-62
2023/09/16 05:47:52;;;;;;;13.52;11.23;;;;;;;;;;5057071;28;20057;-62
2023/09/16 05:50:18;;;;;;;16.38;11.25;;;;;;;;;;5056561;28;20036;-62
2023/09/16 05:52:44;;;;;;;15.05;11.32;;;;;;;;;;5056447;28;20045;-62
2023/09/16 05:55:10;;;;;;;17.67;13.63;;;;;;;;;;5055175;28;20060;-62
2023/09/16 05:57:36;;;;;;;14.48;11.75;;;;;;;;;;5055728;28;20036;-62
2023/09/16 06:00:03;;;;;;;14.77;11.93;;;;;;;;;;5056456;28;20110;-62
2023/09/16 06:02:29;;;;;;;19.02;15.05;;;;;;;;;;5052686;28;20166;-62
2023/09/16 06:04:55;;;;;;;16.50;12.93;;;;;;;;;;5056341;28;20032;-62
2023/09/16 06:07:25;;;;;;;17.45;13.68;;;;;;;;;;5055733;28;20036;-62
2023/09/16 06:09:51;;;;;;;16.45;12.98;;;;;;;;;;5053600;28;20502;-62
2023/09/16 06:12:18;;;;;;;17.73;13.80;;;;;;;;;;5054873;28;20069;-62
2023/09/16 06:14:44;;;;;;;15.00;12.55;;;;;;;;;;5033948;28;20032;-62
2023/09/16 06:17:10;;;;;;;16.10;14.38;;;;;;;;;;5055485;28;20036;-62
2023/09/16 06:19:39;;;;;;;16.65;13.65;;;;;;;;;;5055896;28;20044;-62
2023/09/16 06:22:05;;;;;;;15.52;12.77;;;;;;;;;;5056584;28;20062;-62
2023/09/16 06:24:31;;;;;;;15.23;12.88;;;;;;;;;;5055915;28;20038;-62
2023/09/16 06:26:57;;;;;;;14.10;11.98;;;;;;;;;;5055355;28;20040;-62
2023/09/16 06:29:23;;;;;;;13.57;11.35;;;;;;;;;;5056129;28;20039;-62
2023/09/16 06:31:49;;;;;;;14.63;12.55;;;;;;;;;;5056171;28;20035;-62
2023/09/16 06:34:15;;;;;;;14.63;12.85;;;;;;;;;;5055107;28;20032;-62
2023/09/16 06:36:41;;;;;;;14.13;12.63;;;;;;;;;;5055337;28;20035;-62
2023/09/16 06:39:09;;;;;;;14.73;12.82;;;;;;;;;;5055593;28;20074;-61
2023/09/16 06:41:36;;;;;;;15.32;13.55;;;;;;;;;;5055757;28;20066;-62
2023/09/16 06:44:02;;;;;;;17.20;13.00;;;;;;;;;;5056058;28;20029;-62
2023/09/16 06:46:28;;;;;;;14.65;12.00;;;;;;;;;;5056491;28;20039;-62
2023/09/16 06:48:54;;;;;;;20.92;15.20;;;;;;;;;;5056146;28;20028;-62
2023/09/16 06:51:20;;;;;;;16.83;14.20;;;;;;;;;;5050462;28;20634;-62
2023/09/16 06:53:46;;;;;;;15.63;13.95;;;;;;;;;;5054700;28;20487;-62
2023/09/16 06:56:12;;;;;;;16.67;14.70;;;;;;;;;;5052856;28;20088;-62
2023/09/16 06:58:38;;;;;;;16.35;14.35;;;;;;;;;;5054165;28;20063;-62
2023/09/16 07:01:09;;;;;;;16.17;13.68;;;;;;;;;;5054622;28;20093;-62
2023/09/16 07:03:35;;;;;;;14.18;12.25;;;;;;;;;;5054247;28;20031;-62
2023/09/16 07:06:01;;;;;;;14.98;13.38;;;;;;;;;;5054433;28;20032;-62
2023/09/16 07:08:27;;;;;;;14.70;12.98;;;;;;;;;;5054578;28;20036;-62
2023/09/16 07:10:55;;;;;;;15.73;11.98;;;;;;;;;;5055663;28;20128;-62
2023/09/16 07:13:21;;;;;;;14.98;12.93;;;;;;;;;;5054595;28;20078;-62
2023/09/16 07:15:56;;;;;;;14.82;12.93;;;;;;;;;;5054949;28;20036;-62
2023/09/16 07:18:23;;;;;;;14.98;13.38;;;;;;;;;;5054496;28;21824;-62
2023/09/16 07:20:49;;;;;;;15.98;13.80;;;;;;;;;;5052362;28;20187;-62
2023/09/16 07:23:15;;;;;;;15.50;13.90;;;;;;;;;;5053459;28;20028;-62
2023/09/16 07:25:41;;;;;;;18.23;14.77;;;;;;;;;;5055380;28;20039;-62
2023/09/16 07:28:08;;;;;;;15.90;13.05;;;;;;;;;;5054656;28;20047;-61
2023/09/16 07:30:34;;;;;;;16.70;13.38;;;;;;;;;;5053963;28;20646;-62
2023/09/16 07:33:01;;;;;;;16.02;13.80;;;;;;;;;;5054746;28;20028;-62
2023/09/16 07:35:27;;;;;;;16.52;14.25;;;;;;;;;;5054615;28;20733;-62
2023/09/16 07:37:53;;;;;;;19.17;13.65;;;;;;;;;;5038160;28;20458;-62
2023/09/16 07:40:19;;;;;;;20.30;14.23;;;;;;;;;;5055068;28;20471;-62
2023/09/16 07:42:45;;;;;;;14.65;13.07;;;;;;;;;;5054806;28;20105;-62
2023/09/16 07:45:11;;;;;;;17.60;13.65;;;;;;;;;;5052964;28;20063;-62
2023/09/16 07:47:37;;;;;;;16.73;13.38;;;;;;;;;;5053781;28;20086;-62
2023/09/16 07:50:04;;;;;;;15.48;12.25;;;;;;;;;;5053579;28;20043;-62
2023/09/16 07:52:30;;;;;;;17.38;12.45;;;;;;;;;;5053582;28;20044;-62
2023/09/16 07:54:59;;;;;;;15.82;13.60;;;;;;;;;;5054898;28;20041;-62
2023/09/16 07:57:27;;;;;;;14.52;12.70;;;;;;;;;;5054837;28;20055;-62
2023/09/16 07:59:54;;;;;;;16.10;12.98;;;;;;;;;;5054208;28;20028;-62
2023/09/16 08:02:20;;;;;;;15.45;13.05;;;;;;;;;;5052708;28;20071;-62
2023/09/16 08:04:46;;;;;;;19.02;13.55;;;;;;;;;;5054415;28;20062;-62
2023/09/16 08:07:12;;;;;;;21.45;13.70;;;;;;;;;;5054559;28;20149;-62
2023/09/16 08:09:38;;;;;;;18.00;12.88;;;;;;;;;;5054392;28;20096;-62
2023/09/16 08:12:04;;;;;;;14.27;12.75;;;;;;;;;;5054579;28;20051;-62
2023/09/16 08:14:30;;;;;;;15.45;12.93;;;;;;;;;;5053754;28;20990;-62
2023/09/16 08:16:58;;;;;;;15.43;12.90;;;;;;;;;;5053941;28;20529;-62
2023/09/16 08:19:24;;;;;;;15.13;12.95;;;;;;;;;;5054465;28;20036;-62
2023/09/16 08:21:50;;;;;;;16.55;12.85;;;;;;;;;;5054176;28;20067;-62
2023/09/16 08:24:19;;;;;;;13.45;11.23;;;;;;;;;;5054454;28;20710;-62
2023/09/16 08:26:45;;;;;;;13.05;11.60;;;;;;;;;;5054526;28;21135;-62
2023/09/16 08:29:11;;;;;;;12.75;10.85;;;;;;;;;;5053986;28;20081;-62
2023/09/16 08:31:37;;;;;;;14.82;12.00;;;;;;;;;;5052825;28;20040;-62
2023/09/16 08:34:03;;;;;;;13.93;11.82;;;;;;;;;;5057551;28;20078;-62
2023/09/16 08:36:29;;;;;;;14.43;11.27;;;;;;;;;;5055712;28;20039;-62
2023/09/16 08:38:55;;;;;;;15.35;11.45;;;;;;;;;;5055435;28;20040;-62
2023/09/16 08:41:21;;;;;;;12.35;10.52;;;;;;;;;;5057400;28;20064;-62
2023/09/16 08:43:48;;;;;;;13.90;11.60;;;;;;;;;;5055986;28;20039;-62
2023/09/16 08:46:17;;;;;;;12.95;11.05;;;;;;;;;;5056450;28;20212;-62
2023/09/16 08:48:44;;;;;;;13.45;10.45;;;;;;;;;;5055603;28;20059;-62
2023/09/16 08:51:15;;;;;;;13.95;11.18;;;;;;;;;;5057941;28;20037;-62
2023/09/16 08:53:42;;;;;;;12.13;10.35;;;;;;;;;;5057939;28;20154;-62
2023/09/16 08:56:08;;;;;;;13.30;10.98;;;;;;;;;;5058229;28;20093;-61
2023/09/16 08:58:39;;;;;;;15.13;10.98;;;;;;;;;;5056685;28;21946;-61
2023/09/16 09:01:05;;;;;;;11.57;9.90;;;;;;;;;;5057349;28;20600;-62
2023/09/16 09:03:32;;;;;;;14.98;10.38;;;;;;;;;;5057336;28;20045;-61
2023/09/16 09:05:58;;;;;;;12.45;9.60;;;;;;;;;;5056079;28;20502;-61
2023/09/16 09:08:25;;;;;;;15.63;10.15;;;;;;;;;;5057669;28;20485;-62
2023/09/16 09:10:51;;;;;;;14.95;8.77;;;;;;;;;;5057477;28;20039;-62
2023/09/16 09:13:19;;;;;;;14.13;8.50;;;;;;;;;;5057320;28;20028;-62
2023/09/16 09:15:47;;;;;;;12.43;8.93;;;;;;;;;;5056440;28;20032;-61
2023/09/16 09:18:13;;;;;;;10.93;7.95;;;;;;;;;;5056327;28;20082;-61
2023/09/16 09:20:39;;;;;;;12.20;9.07;;;;;;;;;;5056629;28;20043;-62
2023/09/16 09:23:05;;;;;;;11.88;8.13;;;;;;;;;;5057500;28;20028;-62
2023/09/16 09:25:32;;;;;;;11.27;7.30;;;;;;;;;;5057452;28;20040;-62
2023/09/16 09:27:58;;;;;;;14.07;7.97;;;;;;;;;;5056861;28;20047;-62
2023/09/16 09:30:26;;;;;;;11.10;7.15;;;;;;;;;;5057543;28;20159;-62
2023/09/16 09:32:54;;;;;;;10.20;7.50;;;;;;;;;;5057996;28;20051;-62
2023/09/16 09:35:24;;;;;;;10.98;6.72;;;;;;;;;;5057157;28;20020;-62
2023/09/16 09:37:53;;;;;;;11.70;6.65;;;;;;;;;;5058149;28;20060;-62
2023/09/16 09:40:19;;;;;;;9.52;6.03;;;;;;;;;;5058361;28;20514;-62
2023/09/16 09:42:46;;;;;;;10.60;6.25;;;;;;;;;;5056273;28;20505;-62
2023/09/16 09:45:13;;;;;;;9.35;6.80;;;;;;;;;;5057861;28;20850;-62
2023/09/16 09:47:40;;;;;;;10.40;6.45;;;;;;;;;;5056606;28;20051;-62
2023/09/16 09:50:07;;;;;;;10.00;6.93;;;;;;;;;;5056084;28;20032;-62
2023/09/16 09:52:36;;;;;;;10.93;5.45;;;;;;;;;;5056792;28;20040;-62
2023/09/16 09:55:03;;;;;;;7.28;5.13;;;;;;;;;;5057370;28;20888;-62
2023/09/16 09:57:29;;;;;;;7.35;5.13;;;;;;;;;;5057037;28;20048;-62
2023/09/16 09:59:56;;;;;;;7.80;5.05;;;;;;;;;;5054594;28;20032;-62
2023/09/16 10:02:26;;;;;;;7.22;4.75;;;;;;;;;;5056758;28;20038;-62
2023/09/16 10:05:01;;;;;;;7.90;5.53;;;;;;;;;;5058246;28;20528;-62
2023/09/16 10:07:27;;;;;;;8.80;5.75;;;;;;;;;;5055162;28;20024;-62
2023/09/16 10:09:53;;;;;;;8.02;4.72;;;;;;;;;;5056437;28;20054;-62
2023/09/16 10:12:20;;;;;;;8.73;4.60;;;;;;;;;;5056519;28;21362;-62
2023/09/16 10:14:46;;;;;;;8.85;5.28;;;;;;;;;;5054871;28;22148;-62
2023/09/16 10:17:12;;;;;;;10.25;5.78;;;;;;;;;;5054137;28;20117;-62
2023/09/16 10:19:39;;;;;;;8.50;5.70;;;;;;;;;;5054031;28;21653;-62
2023/09/16 10:22:05;;;;;;;9.57;5.40;;;;;;;;;;5054140;28;20437;-62
2023/09/16 10:24:31;;;;;;;8.38;5.45;;;;;;;;;;5056281;28;20111;-62
2023/09/16 10:26:58;;;;;;;8.90;4.60;;;;;;;;;;5054588;28;21221;-62
2023/09/16 10:29:26;;;;;;;8.40;3.90;;;;;;;;;;5055327;28;20508;-62
2023/09/16 10:31:54;;;;;;;7.82;4.22;;;;;;;;;;5056937;28;20040;-62
2023/09/16 10:34:20;;;;;;;7.40;4.20;;;;;;;;;;5056137;28;20030;-62
2023/09/16 10:36:47;;;;;;;8.70;4.88;;;;;;;;;;5056360;28;20032;-62
2023/09/16 10:39:15;;;;;;;8.32;5.13;;;;;;;;;;5056770;28;20587;-62
2023/09/16 10:41:43;;;;;;;8.65;5.20;;;;;;;;;;5056964;28;20092;-62
2023/09/16 10:44:11;;;;;;;8.93;4.97;;;;;;;;;;5055238;28;20078;-62
2023/09/16 10:46:38;;;;;;;7.72;4.80;;;;;;;;;;5056981;28;20040;-62
2023/09/16 10:49:04;;;;;;;7.78;5.15;;;;;;;;;;5055354;28;20028;-62
2023/09/16 10:51:33;;;;;;;8.15;5.00;;;;;;;;;;5055951;28;20040;-62
2023/09/16 10:54:05;;;;;;;8.15;4.97;;;;;;;;;;5054286;28;20043;-62
2023/09/16 10:56:34;;;;;;;9.05;5.28;;;;;;;;;;5054764;28;20040;-62
2023/09/16 10:59:08;;;;;;;8.43;5.00;;;;;;;;;;5072884;28;20028;-62
2023/09/16 11:01:37;;;;;;;7.60;4.85;;;;;;;;;;5055401;28;20028;-62
2023/09/16 11:04:07;;;;;;;7.40;4.32;;;;;;;;;;5055723;28;20020;-62
2023/09/16 11:06:33;;;;;;;6.72;4.75;;;;;;;;;;5055613;28;20060;-62
2023/09/16 11:09:00;;;;;;;8.43;5.55;;;;;;;;;;5055686;28;20051;-62
2023/09/16 11:11:26;;;;;;;8.63;5.28;;;;;;;;;;5054804;28;20457;-62
2023/09/16 11:13:52;;;;;;;7.20;4.50;;;;;;;;;;5055839;28;20770;-62
2023/09/16 11:16:21;;;;;;;9.95;5.35;;;;;;;;;;5055387;28;20109;-62
2023/09/16 11:18:51;;;;;;;9.15;4.60;;;;;;;;;;5055685;28;20028;-62
2023/09/16 11:21:19;;;;;;;8.13;4.82;;;;;;;;;;5055989;28;20394;-62
2023/09/16 11:23:45;;;;;;;7.45;4.47;;;;;;;;;;5055412;28;20044;-62
2023/09/16 11:26:17;;;;;;;8.63;4.68;;;;;;;;;;5055692;28;20041;-62
2023/09/16 11:28:43;;;;;;;8.32;4.55;;;;;;;;;;5055085;28;20069;-62
2023/09/16 11:31:09;;;;;;;8.38;5.30;;;;;;;;;;5055798;28;20040;-62
2023/09/16 11:33:39;;;;;;;8.63;4.95;;;;;;;;;;5055471;28;20043;-62
2023/09/16 11:36:06;;;;;;;7.25;3.90;;;;;;;;;;5055655;28;20039;-62
2023/09/16 11:38:32;;;;;;;8.35;4.35;;;;;;;;;;5054608;28;20036;-62
2023/09/16 11:41:09;;;;;;;5.28;2.97;;;;;;;;;;5054648;28;21484;-62
2023/09/16 11:43:35;;;;;;;5.30;2.42;;;;;;;;;;5055146;28;20032;-62
2023/09/16 11:46:01;;;;;;;5.38;2.80;;;;;;;;;;5054936;28;20032;-63
2023/09/16 11:48:29;;;;;;;6.03;2.70;;;;;;;;;;5052967;28;20391;-62
2023/09/16 11:50:55;;;;;;;5.85;2.92;;;;;;;;;;5054550;28;20092;-62
2023/09/16 11:53:23;;;;;;;5.35;2.38;;;;;;;;;;5055027;28;20062;-62
2023/09/16 11:55:49;;;;;;;5.60;3.42;;;;;;;;;;5055034;28;20419;-62
2023/09/16 11:58:15;;;;;;;7.53;2.85;;;;;;;;;;5054631;28;20035;-62
2023/09/16 12:00:42;;;;;;;7.40;3.63;;;;;;;;;;5055561;28;20033;-62
2023/09/16 12:03:10;;;;;;;10.95;3.13;;;;;;;;;;5055089;28;20036;-62
2023/09/16 12:05:38;;;;;;;6.05;3.50;;;;;;;;;;5053929;28;20032;-62
2023/09/16 12:08:04;;;;;;;5.40;2.70;;;;;;;;;;5051156;28;20029;-62
2023/09/16 12:10:34;;;;;;;6.03;2.75;;;;;;;;;;5054217;28;20035;-62
2023/09/16 12:13:00;;;;;;;7.85;2.33;;;;;;;;;;5052130;28;20039;-62
2023/09/16 12:15:31;;;;;;;5.72;2.45;;;;;;;;;;5053535;28;20046;-62
2023/09/16 12:17:57;;;;;;;4.60;2.20;;;;;;;;;;5053486;28;20032;-62
2023/09/16 12:20:24;;;;;;;5.57;2.38;;;;;;;;;;5053646;28;20044;-62
2023/09/16 12:22:52;;;;;;;5.50;2.15;;;;;;;;;;5054904;28;20032;-62
2023/09/16 12:25:18;;;;;;;5.07;2.20;;;;;;;;;;5054870;28;20025;-62
2023/09/16 12:27:47;;;;;;;5.53;2.20;;;;;;;;;;5054979;28;20040;-62
2023/09/16 12:30:13;;;;;;;5.97;2.45;;;;;;;;;;5055550;28;20028;-62
2023/09/16 12:32:49;;;;;;;9.43;2.45;;;;;;;;;;5053903;28;20028;-62
2023/09/16 12:35:15;;;;;;;4.20;2.00;;;;;;;;;;5054690;28;20162;-62
2023/09/16 12:37:41;;;;;;;5.35;2.22;;;;;;;;;;5054977;28;20032;-62
2023/09/16 12:40:08;;;;;;;4.85;2.17;;;;;;;;;;5055196;28;20483;-62
2023/09/16 12:42:35;;;;;;;5.38;2.33;;;;;;;;;;5052828;28;20056;-62
2023/09/16 12:45:01;;;;;;;4.25;2.22;;;;;;;;;;5054276;28;20526;-62
2023/09/16 12:47:27;;;;;;;5.75;2.67;;;;;;;;;;5053704;28;20036;-62
2023/09/16 12:49:54;;;;;;;4.45;2.17;;;;;;;;;;5053367;28;20546;-62
2023/09/16 12:52:20;;;;;;;4.13;2.08;;;;;;;;;;5053899;28;20047;-62
2023/09/16 12:54:46;;;;;;;4.93;2.35;;;;;;;;;;5054308;28;20039;-62
2023/09/16 12:57:15;;;;;;;4.57;2.20;;;;;;;;;;5049672;28;20044;-62
2023/09/16 13:00:03;;;;;;;5.65;2.60;;;;;;;;;;5053847;28;20028;-62
2023/09/16 13:02:29;;;;;;;5.40;2.50;;;;;;;;;;5052640;28;20039;-62
2023/09/16 13:05:10;;;;;;;5.03;2.10;;;;;;;;;;5053807;28;20090;-62
2023/09/16 13:07:37;;;;;;;6.82;2.50;;;;;;;;;;5054710;28;20035;-62
2023/09/16 13:10:04;;;;;;;6.20;3.10;;;;;;;;;;5054271;28;20047;-62
2023/09/16 13:12:30;;;;;;;5.68;2.45;;;;;;;;;;5053799;28;20032;-62
2023/09/16 13:14:57;;;;;;;4.93;2.42;;;;;;;;;;5053938;28;20037;-62
2023/09/16 13:17:23;;;;;;;5.00;2.30;;;;;;;;;;5054684;28;20047;-62
2023/09/16 13:19:50;;;;;;;5.90;2.40;;;;;;;;;;5057448;28;20542;-62
2023/09/16 13:22:17;;;;;;;4.93;2.58;;;;;;;;;;5058333;28;20024;-62
2023/09/16 13:24:45;;;;;;;6.05;2.28;;;;;;;;;;5056718;28;20035;-62
2023/09/16 13:27:16;;;;;;;5.72;2.60;;;;;;;;;;5057691;28;20563;-62
2023/09/16 13:29:45;;;;;;;7.00;2.80;;;;;;;;;;5056965;28;21015;-62
2023/09/16 13:32:11;;;;;;;5.30;2.17;;;;;;;;;;5055723;28;20043;-62
2023/09/16 13:34:38;;;;;;;4.88;2.30;;;;;;;;;;5057151;28;20494;-62
2023/09/16 13:37:04;;;;;;;6.00;2.80;;;;;;;;;;5057664;28;20070;-62
2023/09/16 13:39:41;;;;;;;7.18;2.70;;;;;;;;;;5058272;28;20070;-62
2023/09/16 13:42:07;;;;;;;4.60;2.38;;;;;;;;;;5057628;28;20139;-62
2023/09/16 13:44:33;;;;;;;5.35;2.40;;;;;;;;;;5056699;28;20024;-62
2023/09/16 13:46:59;;;;;;;5.45;2.83;;;;;;;;;;5057529;28;20047;-62
2023/09/16 13:49:25;;;;;;;6.30;2.72;;;;;;;;;;5055110;28;20036;-62
2023/09/16 13:51:51;;;;;;;5.90;2.80;;;;;;;;;;5054933;28;20059;-62
2023/09/16 13:54:17;;;;;;;6.25;2.90;;;;;;;;;;5055754;28;20051;-62
2023/09/16 13:56:44;;;;;;;6.18;2.63;;;;;;;;;;5055066;28;20051;-62
2023/09/16 13:59:10;;;;;;;5.80;2.38;;;;;;;;;;5054959;28;20032;-62
2023/09/16 14:01:36;;;;;;;7.75;3.92;;;;;;;;;;5056261;28;20128;-62
2023/09/16 14:04:02;;;;;;;6.53;3.83;;;;;;;;;;5054951;28;20024;-62
2023/09/16 14:06:29;;;;;;;8.27;4.47;;;;;;;;;;5053913;28;20040;-62
2023/09/16 14:08:55;;;;;;;7.78;4.25;;;;;;;;;;5056658;28;20036;-62
2023/09/16 14:11:21;;;;;;;8.60;4.70;;;;;;;;;;5055451;28;20031;-62
2023/09/16 14:13:47;;;;;;;7.97;3.95;;;;;;;;;;5054466;28;20488;-62
2023/09/16 14:16:13;;;;;;;8.82;4.13;;;;;;;;;;5053819;28;20044;-62
2023/09/16 14:18:39;;;;;;;7.35;4.57;;;;;;;;;;5053293;28;20483;-62
2023/09/16 14:21:06;;;;;;;8.27;4.70;;;;;;;;;;5054696;28;20491;-62
2023/09/16 14:23:32;;;;;;;8.45;4.22;;;;;;;;;;5056308;28;20024;-62
2023/09/16 14:25:59;;;;;;;7.28;3.70;;;;;;;;;;5055562;28;20146;-62
2023/09/16 14:28:25;;;;;;;7.57;4.53;;;;;;;;;;5056242;28;20036;-62
2023/09/16 14:30:51;;;;;;;6.50;4.35;;;;;;;;;;5053775;28;20032;-62